Hopkins, Missouri
Current Conditions -  °F | °C
As of 9:55 AM on Saturday 20 Dec 2014 (Local Time) from KICL Reporting Station
Unknown Precip Unknown Precip  
Wind Chill: 26°   Ceiling: 500
Heat Index: 32°   Visibility: 1.7mi
Dew Point: 32°   Wind: 7mph
Humidity: 100%   Direction: 150°SSE
Pressure: 30.17"   Gusts: NA
Location:  40.55°N, 94.82°W
Report Text: KICL 201555Z AUTO 15006KT 1 3/4SM -UP OVC005 00/00 A3017 RMK AO2
Loading
Personal Weather Stations






























Interactive Weather Map New forecast layout! Learn more

10-Day Weather Forecast

Advertisements
Track Severe Weather on mobile